sensor_id;sensor_type;location;lat;lon;timestamp;P1;durP1;ratioP1;P2;durP2;ratioP2
72235;SDS011;60146;52.498;13.462;2023-04-01T00:01:55;3.47;;;1.90;;
72235;SDS011;60146;52.498;13.462;2023-04-01T00:04:21;3.20;;;1.60;;
72235;SDS011;60146;52.498;13.462;2023-04-01T00:06:46;3.30;;;1.60;;
72235;SDS011;60146;52.498;13.462;2023-04-01T00:09:12;2.70;;;1.63;;
72235;SDS011;60146;52.498;13.462;2023-04-01T00:11:38;2.40;;;1.50;;
72235;SDS011;60146;52.498;13.462;2023-04-01T00:14:04;3.53;;;1.60;;
72235;SDS011;60146;52.498;13.462;2023-04-01T00:16:29;2.93;;;1.53;;
72235;SDS011;60146;52.498;13.462;2023-04-01T00:18:55;3.63;;;1.80;;
72235;SDS011;60146;52.498;13.462;2023-04-01T00:21:20;2.37;;;1.60;;
72235;SDS011;60146;52.498;13.462;2023-04-01T00:23:47;4.77;;;1.90;;
72235;SDS011;60146;52.498;13.462;2023-04-01T00:26:13;3.70;;;1.90;;
72235;SDS011;60146;52.498;13.462;2023-04-01T00:28:41;2.60;;;1.70;;
72235;SDS011;60146;52.498;13.462;2023-04-01T00:31:07;3.20;;;1.70;;
72235;SDS011;60146;52.498;13.462;2023-04-01T00:33:33;2.87;;;1.80;;
72235;SDS011;60146;52.498;13.462;2023-04-01T00:36:06;3.20;;;1.60;;
72235;SDS011;60146;52.498;13.462;2023-04-01T00:38:35;5.43;;;1.80;;
72235;SDS011;60146;52.498;13.462;2023-04-01T00:41:01;3.60;;;1.90;;
72235;SDS011;60146;52.498;13.462;2023-04-01T00:43:26;3.37;;;1.93;;
72235;SDS011;60146;52.498;13.462;2023-04-01T00:45:52;4.07;;;1.70;;
72235;SDS011;60146;52.498;13.462;2023-04-01T00:48:18;2.73;;;1.80;;
72235;SDS011;60146;52.498;13.462;2023-04-01T00:50:49;4.93;;;1.57;;
72235;SDS011;60146;52.498;13.462;2023-04-01T00:53:18;3.37;;;1.83;;
72235;SDS011;60146;52.498;13.462;2023-04-01T00:55:50;3.73;;;1.80;;
72235;SDS011;60146;52.498;13.462;2023-04-01T00:58:18;2.43;;;1.37;;
72235;SDS011;60146;52.498;13.462;2023-04-01T01:00:46;3.27;;;1.73;;
72235;SDS011;60146;52.498;13.462;2023-04-01T01:03:13;2.60;;;1.50;;
72235;SDS011;60146;52.498;13.462;2023-04-01T01:09:00;3.20;;;1.73;;
72235;SDS011;60146;52.498;13.462;2023-04-01T01:11:37;3.43;;;1.60;;
72235;SDS011;60146;52.498;13.462;2023-04-01T01:14:29;3.77;;;1.97;;
72235;SDS011;60146;52.498;13.462;2023-04-01T01:17:06;3.63;;;1.80;;
72235;SDS011;60146;52.498;13.462;2023-04-01T01:19:48;3.83;;;1.70;;
72235;SDS011;60146;52.498;13.462;2023-04-01T01:27:33;2.77;;;1.40;;
72235;SDS011;60146;52.498;13.462;2023-04-01T01:30:10;3.55;;;1.70;;
72235;SDS011;60146;52.498;13.462;2023-04-01T01:33:10;3.67;;;1.57;;
72235;SDS011;60146;52.498;13.462;2023-04-01T01:35:59;4.63;;;1.90;;
72235;SDS011;60146;52.498;13.462;2023-04-01T01:38:29;4.50;;;1.75;;
72235;SDS011;60146;52.498;13.462;2023-04-01T01:40:57;3.93;;;1.63;;
72235;SDS011;60146;52.498;13.462;2023-04-01T01:43:30;4.13;;;1.70;;
72235;SDS011;60146;52.498;13.462;2023-04-01T01:46:01;5.53;;;1.80;;
72235;SDS011;60146;52.498;13.462;2023-04-01T01:48:31;3.30;;;1.77;;
72235;SDS011;60146;52.498;13.462;2023-04-01T01:50:57;3.60;;;1.70;;
72235;SDS011;60146;52.498;13.462;2023-04-01T01:53:23;4.43;;;1.80;;
72235;SDS011;60146;52.498;13.462;2023-04-01T01:55:49;3.03;;;1.80;;
72235;SDS011;60146;52.498;13.462;2023-04-01T02:01:06;6.93;;;2.20;;
72235;SDS011;60146;52.498;13.462;2023-04-01T02:03:36;2.90;;;1.90;;
72235;SDS011;60146;52.498;13.462;2023-04-01T02:06:06;3.73;;;2.00;;
72235;SDS011;60146;52.498;13.462;2023-04-01T02:11:09;3.17;;;2.00;;
72235;SDS011;60146;52.498;13.462;2023-04-01T02:13:45;3.77;;;2.13;;
72235;SDS011;60146;52.498;13.462;2023-04-01T02:16:23;5.13;;;2.38;;
72235;SDS011;60146;52.498;13.462;2023-04-01T02:18:54;7.17;;;2.53;;
72235;SDS011;60146;52.498;13.462;2023-04-01T02:21:22;7.70;;;2.17;;
72235;SDS011;60146;52.498;13.462;2023-04-01T02:23:50;6.03;;;2.43;;
72235;SDS011;60146;52.498;13.462;2023-04-01T02:26:18;5.93;;;1.97;;
72235;SDS011;60146;52.498;13.462;2023-04-01T02:28:44;6.00;;;1.83;;
72235;SDS011;60146;52.498;13.462;2023-04-01T02:31:11;5.47;;;2.33;;
72235;SDS011;60146;52.498;13.462;2023-04-01T02:33:38;4.70;;;2.00;;
72235;SDS011;60146;52.498;13.462;2023-04-01T02:36:05;3.77;;;1.80;;
72235;SDS011;60146;52.498;13.462;2023-04-01T02:38:35;4.50;;;1.80;;
72235;SDS011;60146;52.498;13.462;2023-04-01T02:41:01;5.57;;;2.03;;
72235;SDS011;60146;52.498;13.462;2023-04-01T02:43:27;6.47;;;1.70;;
72235;SDS011;60146;52.498;13.462;2023-04-01T02:45:53;5.07;;;1.83;;
72235;SDS011;60146;52.498;13.462;2023-04-01T02:48:19;3.63;;;1.60;;
72235;SDS011;60146;52.498;13.462;2023-04-01T02:50:45;3.60;;;1.50;;
72235;SDS011;60146;52.498;13.462;2023-04-01T02:53:11;4.07;;;1.40;;
72235;SDS011;60146;52.498;13.462;2023-04-01T02:55:37;3.07;;;1.47;;
72235;SDS011;60146;52.498;13.462;2023-04-01T02:58:02;2.70;;;1.30;;
72235;SDS011;60146;52.498;13.462;2023-04-01T03:00:27;2.63;;;1.10;;
72235;SDS011;60146;52.498;13.462;2023-04-01T03:02:53;3.60;;;1.30;;
72235;SDS011;60146;52.498;13.462;2023-04-01T03:05:19;4.73;;;1.73;;
72235;SDS011;60146;52.498;13.462;2023-04-01T03:07:44;2.80;;;1.90;;
72235;SDS011;60146;52.498;13.462;2023-04-01T03:10:10;1.97;;;1.40;;
72235;SDS011;60146;52.498;13.462;2023-04-01T03:12:35;3.63;;;1.60;;
72235;SDS011;60146;52.498;13.462;2023-04-01T03:15:00;3.70;;;1.87;;
72235;SDS011;60146;52.498;13.462;2023-04-01T03:17:26;6.97;;;1.67;;
72235;SDS011;60146;52.498;13.462;2023-04-01T03:19:51;3.90;;;1.70;;
72235;SDS011;60146;52.498;13.462;2023-04-01T03:22:16;5.13;;;1.93;;
72235;SDS011;60146;52.498;13.462;2023-04-01T03:24:45;4.43;;;1.47;;
72235;SDS011;60146;52.498;13.462;2023-04-01T03:27:11;2.40;;;1.60;;
72235;SDS011;60146;52.498;13.462;2023-04-01T03:29:36;2.33;;;1.50;;
72235;SDS011;60146;52.498;13.462;2023-04-01T03:32:02;3.70;;;1.87;;
72235;SDS011;60146;52.498;13.462;2023-04-01T03:34:27;3.57;;;1.87;;
72235;SDS011;60146;52.498;13.462;2023-04-01T03:36:52;3.73;;;1.80;;
72235;SDS011;60146;52.498;13.462;2023-04-01T03:39:18;3.57;;;1.80;;
72235;SDS011;60146;52.498;13.462;2023-04-01T03:41:44;4.03;;;1.87;;
72235;SDS011;60146;52.498;13.462;2023-04-01T03:44:10;5.13;;;1.60;;
72235;SDS011;60146;52.498;13.462;2023-04-01T03:46:35;4.73;;;2.00;;
72235;SDS011;60146;52.498;13.462;2023-04-01T03:49:00;3.87;;;1.80;;
72235;SDS011;60146;52.498;13.462;2023-04-01T03:51:26;3.17;;;1.60;;
72235;SDS011;60146;52.498;13.462;2023-04-01T03:53:51;5.23;;;1.80;;
72235;SDS011;60146;52.498;13.462;2023-04-01T03:56:17;3.80;;;1.70;;
72235;SDS011;60146;52.498;13.462;2023-04-01T03:58:42;5.90;;;1.97;;
72235;SDS011;60146;52.498;13.462;2023-04-01T04:01:18;5.93;;;2.07;;
72235;SDS011;60146;52.498;13.462;2023-04-01T04:03:45;5.40;;;2.33;;
72235;SDS011;60146;52.498;13.462;2023-04-01T04:06:11;3.40;;;1.70;;
72235;SDS011;60146;52.498;13.462;2023-04-01T04:08:40;7.15;;;2.30;;
72235;SDS011;60146;52.498;13.462;2023-04-01T04:11:06;4.97;;;2.00;;
72235;SDS011;60146;52.498;13.462;2023-04-01T04:13:31;3.07;;;1.90;;
72235;SDS011;60146;52.498;13.462;2023-04-01T04:15:56;5.60;;;1.97;;
72235;SDS011;60146;52.498;13.462;2023-04-01T04:18:23;6.70;;;1.93;;
72235;SDS011;60146;52.498;13.462;2023-04-01T04:20:48;6.27;;;2.30;;
72235;SDS011;60146;52.498;13.462;2023-04-01T04:23:16;4.47;;;2.00;;
72235;SDS011;60146;52.498;13.462;2023-04-01T04:25:41;3.93;;;1.77;;
72235;SDS011;60146;52.498;13.462;2023-04-01T04:28:18;4.47;;;1.80;;
72235;SDS011;60146;52.498;13.462;2023-04-01T04:30:43;6.07;;;2.17;;
72235;SDS011;60146;52.498;13.462;2023-04-01T04:33:09;4.13;;;1.67;;
72235;SDS011;60146;52.498;13.462;2023-04-01T04:35:34;2.90;;;1.90;;
72235;SDS011;60146;52.498;13.462;2023-04-01T04:37:59;3.27;;;1.80;;
72235;SDS011;60146;52.498;13.462;2023-04-01T04:40:25;4.10;;;1.97;;
72235;SDS011;60146;52.498;13.462;2023-04-01T04:42:50;6.27;;;1.97;;
72235;SDS011;60146;52.498;13.462;2023-04-01T04:45:15;2.80;;;1.83;;
72235;SDS011;60146;52.498;13.462;2023-04-01T04:47:41;5.73;;;2.30;;
72235;SDS011;60146;52.498;13.462;2023-04-01T04:50:07;5.90;;;2.17;;
72235;SDS011;60146;52.498;13.462;2023-04-01T04:52:32;4.93;;;2.00;;
72235;SDS011;60146;52.498;13.462;2023-04-01T04:54:58;6.00;;;2.30;;
72235;SDS011;60146;52.498;13.462;2023-04-01T04:57:23;6.43;;;2.30;;
72235;SDS011;60146;52.498;13.462;2023-04-01T04:59:48;4.60;;;2.20;;
72235;SDS011;60146;52.498;13.462;2023-04-01T05:02:13;6.60;;;2.40;;
72235;SDS011;60146;52.498;13.462;2023-04-01T05:04:39;3.47;;;2.00;;
72235;SDS011;60146;52.498;13.462;2023-04-01T05:07:04;3.73;;;1.97;;
72235;SDS011;60146;52.498;13.462;2023-04-01T05:09:30;5.43;;;2.00;;
72235;SDS011;60146;52.498;13.462;2023-04-01T05:11:56;4.53;;;2.23;;
72235;SDS011;60146;52.498;13.462;2023-04-01T05:14:21;4.30;;;2.23;;
72235;SDS011;60146;52.498;13.462;2023-04-01T05:16:46;4.73;;;2.30;;
72235;SDS011;60146;52.498;13.462;2023-04-01T05:19:12;3.43;;;2.10;;
72235;SDS011;60146;52.498;13.462;2023-04-01T05:21:37;4.70;;;2.40;;
72235;SDS011;60146;52.498;13.462;2023-04-01T05:24:02;5.13;;;2.10;;
72235;SDS011;60146;52.498;13.462;2023-04-01T05:26:28;5.53;;;2.57;;
72235;SDS011;60146;52.498;13.462;2023-04-01T05:28:53;3.23;;;2.13;;
72235;SDS011;60146;52.498;13.462;2023-04-01T05:31:19;5.53;;;2.53;;
72235;SDS011;60146;52.498;13.462;2023-04-01T05:33:44;4.80;;;2.30;;
72235;SDS011;60146;52.498;13.462;2023-04-01T05:36:10;4.83;;;2.20;;
72235;SDS011;60146;52.498;13.462;2023-04-01T05:38:38;7.53;;;2.50;;
72235;SDS011;60146;52.498;13.462;2023-04-01T05:41:04;7.37;;;2.80;;
72235;SDS011;60146;52.498;13.462;2023-04-01T05:43:29;5.30;;;2.40;;
72235;SDS011;60146;52.498;13.462;2023-04-01T05:45:55;6.87;;;2.40;;
72235;SDS011;60146;52.498;13.462;2023-04-01T05:48:21;6.13;;;2.33;;
72235;SDS011;60146;52.498;13.462;2023-04-01T05:50:46;5.00;;;2.60;;
72235;SDS011;60146;52.498;13.462;2023-04-01T05:53:11;7.30;;;2.50;;
72235;SDS011;60146;52.498;13.462;2023-04-01T05:55:37;7.77;;;2.40;;
72235;SDS011;60146;52.498;13.462;2023-04-01T05:58:02;6.67;;;2.70;;
72235;SDS011;60146;52.498;13.462;2023-04-01T06:00:28;6.30;;;2.63;;
72235;SDS011;60146;52.498;13.462;2023-04-01T06:02:53;4.00;;;2.07;;
72235;SDS011;60146;52.498;13.462;2023-04-01T06:05:23;4.90;;;2.50;;
72235;SDS011;60146;52.498;13.462;2023-04-01T06:07:50;5.83;;;2.43;;
72235;SDS011;60146;52.498;13.462;2023-04-01T06:10:33;8.73;;;2.90;;
72235;SDS011;60146;52.498;13.462;2023-04-01T06:15:53;6.03;;;2.70;;
72235;SDS011;60146;52.498;13.462;2023-04-01T06:27:36;5.17;;;2.70;;
72235;SDS011;60146;52.498;13.462;2023-04-01T06:41:27;3.43;;;2.43;;
72235;SDS011;60146;52.498;13.462;2023-04-01T06:44:28;5.17;;;2.30;;
72235;SDS011;60146;52.498;13.462;2023-04-01T06:49:53;4.10;;;2.23;;
72235;SDS011;60146;52.498;13.462;2023-04-01T06:52:26;5.83;;;2.00;;
72235;SDS011;60146;52.498;13.462;2023-04-01T06:57:54;4.57;;;2.20;;
72235;SDS011;60146;52.498;13.462;2023-04-01T07:05:51;5.37;;;2.37;;
72235;SDS011;60146;52.498;13.462;2023-04-01T07:08:18;7.33;;;2.33;;
72235;SDS011;60146;52.498;13.462;2023-04-01T07:10:54;5.20;;;2.80;;
72235;SDS011;60146;52.498;13.462;2023-04-01T07:13:30;7.80;;;2.97;;
72235;SDS011;60146;52.498;13.462;2023-04-01T07:18:51;10.50;;;4.50;;
72235;SDS011;60146;52.498;13.462;2023-04-01T07:21:32;8.10;;;3.10;;
72235;SDS011;60146;52.498;13.462;2023-04-01T07:24:04;6.50;;;2.92;;
72235;SDS011;60146;52.498;13.462;2023-04-01T07:26:34;7.70;;;2.90;;
72235;SDS011;60146;52.498;13.462;2023-04-01T07:29:00;8.77;;;3.10;;
72235;SDS011;60146;52.498;13.462;2023-04-01T07:52:05;8.45;;;3.58;;
72235;SDS011;60146;52.498;13.462;2023-04-01T07:54:26;8.73;;;3.77;;
72235;SDS011;60146;52.498;13.462;2023-04-01T07:57:22;9.63;;;3.50;;
72235;SDS011;60146;52.498;13.462;2023-04-01T07:59:59;8.30;;;3.50;;
72235;SDS011;60146;52.498;13.462;2023-04-01T08:05:27;6.80;;;3.17;;
72235;SDS011;60146;52.498;13.462;2023-04-01T08:08:06;6.83;;;3.07;;
72235;SDS011;60146;52.498;13.462;2023-04-01T08:21:38;12.20;;;4.60;;
72235;SDS011;60146;52.498;13.462;2023-04-01T08:24:55;9.43;;;4.00;;
72235;SDS011;60146;52.498;13.462;2023-04-01T08:27:16;7.57;;;3.20;;
72235;SDS011;60146;52.498;13.462;2023-04-01T08:30:06;3.97;;;2.30;;
72235;SDS011;60146;52.498;13.462;2023-04-01T08:32:43;5.30;;;2.30;;
72235;SDS011;60146;52.498;13.462;2023-04-01T08:35:21;5.87;;;2.80;;
72235;SDS011;60146;52.498;13.462;2023-04-01T08:37:53;6.87;;;3.20;;
72235;SDS011;60146;52.498;13.462;2023-04-01T08:43:09;7.00;;;3.30;;
72235;SDS011;60146;52.498;13.462;2023-04-01T08:48:28;8.97;;;4.03;;
72235;SDS011;60146;52.498;13.462;2023-04-01T09:24:19;10.43;;;4.57;;
72235;SDS011;60146;52.498;13.462;2023-04-01T09:33:04;8.60;;;4.77;;
72235;SDS011;60146;52.498;13.462;2023-04-01T09:36:01;7.70;;;4.33;;
72235;SDS011;60146;52.498;13.462;2023-04-01T09:49:57;11.70;;;5.43;;
72235;SDS011;60146;52.498;13.462;2023-04-01T09:52:32;9.67;;;5.47;;
72235;SDS011;60146;52.498;13.462;2023-04-01T09:55:21;7.70;;;4.23;;
72235;SDS011;60146;52.498;13.462;2023-04-01T10:05:42;7.30;;;4.00;;
72235;SDS011;60146;52.498;13.462;2023-04-01T10:08:37;10.40;;;4.83;;
72235;SDS011;60146;52.498;13.462;2023-04-01T10:14:23;8.97;;;4.50;;
72235;SDS011;60146;52.498;13.462;2023-04-01T10:25:14;10.47;;;5.53;;
72235;SDS011;60146;52.498;13.462;2023-04-01T10:36:01;12.43;;;6.13;;
72235;SDS011;60146;52.498;13.462;2023-04-01T11:03:46;5.83;;;3.60;;
72235;SDS011;60146;52.498;13.462;2023-04-01T11:09:29;5.90;;;3.97;;
72235;SDS011;60146;52.498;13.462;2023-04-01T11:36:39;4.60;;;2.30;;
72235;SDS011;60146;52.498;13.462;2023-04-01T11:50:52;4.90;;;2.00;;
72235;SDS011;60146;52.498;13.462;2023-04-01T11:56:09;3.73;;;2.13;;
72235;SDS011;60146;52.498;13.462;2023-04-01T12:07:08;3.70;;;2.07;;
72235;SDS011;60146;52.498;13.462;2023-04-01T12:12:39;4.87;;;2.77;;
72235;SDS011;60146;52.498;13.462;2023-04-01T12:18:00;4.90;;;2.80;;
72235;SDS011;60146;52.498;13.462;2023-04-01T12:20:44;6.70;;;3.00;;
72235;SDS011;60146;52.498;13.462;2023-04-01T12:29:02;7.07;;;3.30;;
72235;SDS011;60146;52.498;13.462;2023-04-01T12:42:59;5.93;;;3.20;;
72235;SDS011;60146;52.498;13.462;2023-04-01T12:53:34;7.77;;;3.87;;
72235;SDS011;60146;52.498;13.462;2023-04-01T12:56:02;6.45;;;2.95;;
72235;SDS011;60146;52.498;13.462;2023-04-01T12:58:51;5.53;;;3.03;;
72235;SDS011;60146;52.498;13.462;2023-04-01T13:01:27;4.78;;;2.63;;
72235;SDS011;60146;52.498;13.462;2023-04-01T13:06:45;7.33;;;3.73;;
72235;SDS011;60146;52.498;13.462;2023-04-01T13:25:39;6.77;;;4.30;;
72235;SDS011;60146;52.498;13.462;2023-04-01T13:28:20;6.00;;;3.63;;
72235;SDS011;60146;52.498;13.462;2023-04-01T13:34:04;4.93;;;3.03;;
72235;SDS011;60146;52.498;13.462;2023-04-01T13:42:03;6.03;;;4.13;;
72235;SDS011;60146;52.498;13.462;2023-04-01T13:44:32;6.77;;;3.37;;
72235;SDS011;60146;52.498;13.462;2023-04-01T13:55:01;7.43;;;4.13;;
72235;SDS011;60146;52.498;13.462;2023-04-01T14:08:55;7.43;;;4.30;;
72235;SDS011;60146;52.498;13.462;2023-04-01T14:25:18;9.67;;;4.97;;
72235;SDS011;60146;52.498;13.462;2023-04-01T14:30:57;8.13;;;4.47;;
72235;SDS011;60146;52.498;13.462;2023-04-01T14:33:46;6.60;;;4.13;;
72235;SDS011;60146;52.498;13.462;2023-04-01T14:36:35;6.10;;;4.07;;
72235;SDS011;60146;52.498;13.462;2023-04-01T14:50:29;6.17;;;3.67;;
72235;SDS011;60146;52.498;13.462;2023-04-01T14:53:13;7.87;;;4.37;;
72235;SDS011;60146;52.498;13.462;2023-04-01T14:58:21;6.85;;;4.57;;
72235;SDS011;60146;52.498;13.462;2023-04-01T15:22:43;8.40;;;4.80;;
72235;SDS011;60146;52.498;13.462;2023-04-01T15:25:30;9.13;;;4.30;;
72235;SDS011;60146;52.498;13.462;2023-04-01T15:28:06;8.73;;;5.03;;
72235;SDS011;60146;52.498;13.462;2023-04-01T15:36:16;9.03;;;5.10;;
72235;SDS011;60146;52.498;13.462;2023-04-01T15:38:50;10.13;;;5.07;;
72235;SDS011;60146;52.498;13.462;2023-04-01T15:54:56;6.93;;;4.10;;
72235;SDS011;60146;52.498;13.462;2023-04-01T15:57:54;6.13;;;3.50;;
72235;SDS011;60146;52.498;13.462;2023-04-01T16:03:20;5.13;;;3.30;;
72235;SDS011;60146;52.498;13.462;2023-04-01T16:08:58;7.23;;;4.00;;
72235;SDS011;60146;52.498;13.462;2023-04-01T16:20:03;10.63;;;5.53;;
72235;SDS011;60146;52.498;13.462;2023-04-01T16:22:50;11.43;;;5.27;;
72235;SDS011;60146;52.498;13.462;2023-04-01T16:28:23;8.23;;;4.70;;
72235;SDS011;60146;52.498;13.462;2023-04-01T16:36:47;7.90;;;4.57;;
72235;SDS011;60146;52.498;13.462;2023-04-01T16:39:19;8.17;;;4.53;;
72235;SDS011;60146;52.498;13.462;2023-04-01T16:41:49;7.57;;;4.80;;
72235;SDS011;60146;52.498;13.462;2023-04-01T16:44:26;8.95;;;4.90;;
72235;SDS011;60146;52.498;13.462;2023-04-01T16:46:56;7.03;;;4.50;;
72235;SDS011;60146;52.498;13.462;2023-04-01T16:49:25;8.40;;;5.00;;
72235;SDS011;60146;52.498;13.462;2023-04-01T17:04:41;8.03;;;4.13;;
72235;SDS011;60146;52.498;13.462;2023-04-01T17:07:11;7.47;;;4.23;;
72235;SDS011;60146;52.498;13.462;2023-04-01T17:09:55;6.67;;;3.90;;
72235;SDS011;60146;52.498;13.462;2023-04-01T17:12:55;6.20;;;4.10;;
72235;SDS011;60146;52.498;13.462;2023-04-01T17:15:46;6.47;;;4.10;;
72235;SDS011;60146;52.498;13.462;2023-04-01T17:35:58;8.20;;;4.70;;
72235;SDS011;60146;52.498;13.462;2023-04-01T17:55:48;8.70;;;5.30;;
72235;SDS011;60146;52.498;13.462;2023-04-01T17:58:26;8.90;;;4.87;;
72235;SDS011;60146;52.498;13.462;2023-04-01T18:22:55;11.00;;;5.55;;
72235;SDS011;60146;52.498;13.462;2023-04-01T18:27:54;9.97;;;4.47;;
72235;SDS011;60146;52.498;13.462;2023-04-01T18:30:26;9.80;;;4.80;;
72235;SDS011;60146;52.498;13.462;2023-04-01T18:38:57;7.80;;;4.07;;
72235;SDS011;60146;52.498;13.462;2023-04-01T18:57:46;7.27;;;3.17;;
72235;SDS011;60146;52.498;13.462;2023-04-01T19:00:33;7.27;;;3.50;;
72235;SDS011;60146;52.498;13.462;2023-04-01T19:06:14;6.83;;;3.73;;
72235;SDS011;60146;52.498;13.462;2023-04-01T19:08:45;6.73;;;4.10;;
72235;SDS011;60146;52.498;13.462;2023-04-01T19:16:56;10.10;;;4.27;;
72235;SDS011;60146;52.498;13.462;2023-04-01T19:19:40;9.20;;;4.73;;
72235;SDS011;60146;52.498;13.462;2023-04-01T19:25:27;12.53;;;4.73;;
72235;SDS011;60146;52.498;13.462;2023-04-01T19:46:58;10.00;;;4.63;;
72235;SDS011;60146;52.498;13.462;2023-04-01T19:49:48;10.05;;;4.63;;
72235;SDS011;60146;52.498;13.462;2023-04-01T19:52:28;8.80;;;4.87;;
72235;SDS011;60146;52.498;13.462;2023-04-01T19:55:06;11.70;;;5.43;;
72235;SDS011;60146;52.498;13.462;2023-04-01T20:00:29;11.23;;;5.00;;
72235;SDS011;60146;52.498;13.462;2023-04-01T20:03:15;15.00;;;5.30;;
72235;SDS011;60146;52.498;13.462;2023-04-01T20:19:42;11.13;;;4.67;;
72235;SDS011;60146;52.498;13.462;2023-04-01T20:22:34;11.70;;;4.90;;
72235;SDS011;60146;52.498;13.462;2023-04-01T20:28:25;15.93;;;4.88;;
72235;SDS011;60146;52.498;13.462;2023-04-01T20:31:18;13.53;;;5.23;;
72235;SDS011;60146;52.498;13.462;2023-04-01T20:50:42;10.90;;;4.87;;
72235;SDS011;60146;52.498;13.462;2023-04-01T20:53:17;10.80;;;4.40;;
72235;SDS011;60146;52.498;13.462;2023-04-01T21:00:54;14.67;;;4.30;;
72235;SDS011;60146;52.498;13.462;2023-04-01T21:03:29;10.40;;;4.53;;
72235;SDS011;60146;52.498;13.462;2023-04-01T21:09:15;9.70;;;3.80;;
72235;SDS011;60146;52.498;13.462;2023-04-01T21:17:30;11.40;;;4.33;;
72235;SDS011;60146;52.498;13.462;2023-04-01T21:28:18;9.17;;;4.10;;
72235;SDS011;60146;52.498;13.462;2023-04-01T21:33:49;6.43;;;2.90;;
72235;SDS011;60146;52.498;13.462;2023-04-01T21:39:15;6.30;;;3.50;;
72235;SDS011;60146;52.498;13.462;2023-04-01T21:56:35;7.53;;;3.30;;
72235;SDS011;60146;52.498;13.462;2023-04-01T21:59:18;8.73;;;3.43;;
72235;SDS011;60146;52.498;13.462;2023-04-01T22:02:11;7.57;;;3.30;;
72235;SDS011;60146;52.498;13.462;2023-04-01T22:07:42;8.50;;;3.63;;
72235;SDS011;60146;52.498;13.462;2023-04-01T22:10:18;6.47;;;3.23;;
72235;SDS011;60146;52.498;13.462;2023-04-01T22:18:33;10.07;;;3.83;;
72235;SDS011;60146;52.498;13.462;2023-04-01T22:24:06;5.67;;;2.70;;
72235;SDS011;60146;52.498;13.462;2023-04-01T22:32:04;8.70;;;3.17;;
72235;SDS011;60146;52.498;13.462;2023-04-01T22:34:47;6.47;;;3.10;;
72235;SDS011;60146;52.498;13.462;2023-04-01T22:42:59;5.70;;;2.63;;
72235;SDS011;60146;52.498;13.462;2023-04-01T22:51:01;5.20;;;2.60;;
72235;SDS011;60146;52.498;13.462;2023-04-01T22:53:40;7.20;;;2.50;;
72235;SDS011;60146;52.498;13.462;2023-04-01T22:56:27;4.90;;;2.80;;
72235;SDS011;60146;52.498;13.462;2023-04-01T22:59:06;7.90;;;3.10;;
72235;SDS011;60146;52.498;13.462;2023-04-01T23:01:40;5.70;;;2.77;;
72235;SDS011;60146;52.498;13.462;2023-04-01T23:04:15;4.90;;;2.83;;
72235;SDS011;60146;52.498;13.462;2023-04-01T23:06:46;4.97;;;2.60;;
72235;SDS011;60146;52.498;13.462;2023-04-01T23:09:34;5.40;;;2.50;;
72235;SDS011;60146;52.498;13.462;2023-04-01T23:12:03;5.10;;;2.47;;
72235;SDS011;60146;52.498;13.462;2023-04-01T23:14:34;8.07;;;2.88;;
72235;SDS011;60146;52.498;13.462;2023-04-01T23:17:16;4.10;;;2.20;;
72235;SDS011;60146;52.498;13.462;2023-04-01T23:19:59;3.67;;;2.00;;
72235;SDS011;60146;52.498;13.462;2023-04-01T23:22:35;5.37;;;2.40;;
72235;SDS011;60146;52.498;13.462;2023-04-01T23:25:14;9.57;;;4.60;;
72235;SDS011;60146;52.498;13.462;2023-04-01T23:27:44;4.90;;;2.70;;
72235;SDS011;60146;52.498;13.462;2023-04-01T23:35:59;4.20;;;2.10;;
72235;SDS011;60146;52.498;13.462;2023-04-01T23:38:31;6.20;;;2.43;;
72235;SDS011;60146;52.498;13.462;2023-04-01T23:40:59;2.87;;;2.07;;
72235;SDS011;60146;52.498;13.462;2023-04-01T23:43:26;4.73;;;2.10;;
72235;SDS011;60146;52.498;13.462;2023-04-01T23:45:55;4.87;;;2.23;;
72235;SDS011;60146;52.498;13.462;2023-04-01T23:48:26;5.17;;;2.30;;
72235;SDS011;60146;52.498;13.462;2023-04-01T23:53:24;4.03;;;2.40;;
72235;SDS011;60146;52.498;13.462;2023-04-01T23:55:52;4.43;;;2.27;;
